La Bruyere, Belgium
Current Conditions -  °F | °C
As of 1:20 AM on Monday 22 Dec 2014 (Local Time) from EBCI Reporting Station
Drizzle Drizzle  
Wind Chill: 36°   Ceiling: 1200
Heat Index: 45°   Visibility: 6mi
Dew Point: 41°   Wind: 22mph
Humidity: 87%   Direction: 220°SW
Pressure: 30.27"   Gusts: NA
Location:  50.39°N, 4.61°E
Report Text: EBCI 220020Z 22019KT 9999 -DZ SCT007 BKN012 07/05 Q1025 TEMPO 22018G30KT
Loading
Personal Weather Stations






























Interactive Weather Map New forecast layout! Learn more

10-Day Weather Forecast

Advertisements
Track Severe Weather on mobile